createdAt,value
2023-03-27T00:01:36.692Z,10.20
2023-03-27T00:04:05.811Z,10.80
2023-03-27T00:06:34.766Z,10.90
2023-03-27T00:09:04.965Z,10.60
2023-03-27T00:11:33.311Z,11.40
2023-03-27T00:14:01.798Z,10.70
2023-03-27T00:16:30.707Z,11.30
2023-03-27T00:18:59.120Z,12.20
2023-03-27T00:21:28.357Z,12.40
2023-03-27T00:23:56.901Z,11.70
2023-03-27T00:26:26.671Z,10.70
2023-03-27T00:28:54.933Z,10.90
2023-03-27T00:31:23.169Z,10.70
2023-03-27T00:33:51.846Z,7.50
2023-03-27T00:36:20.189Z,9.90
2023-03-27T00:38:48.707Z,8.70
2023-03-27T00:41:17.153Z,9.50
2023-03-27T00:43:45.494Z,9.20
2023-03-27T00:46:36.693Z,8.60
2023-03-27T00:49:09.921Z,9.00
2023-03-27T00:51:40.439Z,8.10
2023-03-27T00:54:09.985Z,7.30
2023-03-27T00:56:38.954Z,7.80
2023-03-27T00:59:11.840Z,8.60
2023-03-27T01:01:40.744Z,7.00
2023-03-27T01:04:09.935Z,5.90
2023-03-27T01:06:42.344Z,6.50
2023-03-27T01:09:11.315Z,5.70
2023-03-27T01:12:01.710Z,5.40
2023-03-27T01:15:02.764Z,4.90
2023-03-27T01:17:53.469Z,6.40
2023-03-27T01:21:06.372Z,6.00
2023-03-27T01:24:08.825Z,6.60
2023-03-27T01:26:58.875Z,6.60
2023-03-27T01:29:39.281Z,6.00
2023-03-27T01:32:57.267Z,5.90
2023-03-27T01:35:37.318Z,6.00
2023-03-27T01:38:15.989Z,6.70
2023-03-27T01:41:09.531Z,6.20
2023-03-27T01:44:16.352Z,5.10
2023-03-27T01:46:57.774Z,4.30
2023-03-27T01:49:34.229Z,3.70
2023-03-27T01:52:05.904Z,3.30
2023-03-27T01:54:38.720Z,3.70
2023-03-27T01:57:25.042Z,3.30
2023-03-27T02:00:18.376Z,3.00
2023-03-27T02:03:09.608Z,3.00
2023-03-27T02:05:53.659Z,3.40
2023-03-27T02:08:40.086Z,3.10
2023-03-27T02:11:24.060Z,3.10
2023-03-27T02:13:58.385Z,3.30
2023-03-27T02:16:34.598Z,3.70
2023-03-27T02:19:11.714Z,3.00
2023-03-27T02:21:40.105Z,3.70
2023-03-27T02:24:09.154Z,3.40
2023-03-27T02:26:38.301Z,3.40
2023-03-27T02:29:34.043Z,2.80
2023-03-27T02:32:17.463Z,2.60
2023-03-27T02:35:03.780Z,3.70
2023-03-27T02:38:00.331Z,3.30
2023-03-27T02:41:06.163Z,3.50
2023-03-27T02:44:12.530Z,3.60
2023-03-27T02:47:12.039Z,3.80
2023-03-27T02:49:55.257Z,3.30
2023-03-27T02:52:28.659Z,3.50
2023-03-27T02:55:07.609Z,3.20
2023-03-27T02:57:39.304Z,3.50
2023-03-27T03:00:33.683Z,4.10
2023-03-27T03:03:33.970Z,3.30
2023-03-27T03:06:11.469Z,2.30
2023-03-27T03:08:40.471Z,4.00
2023-03-27T03:11:14.569Z,3.00
2023-03-27T03:13:42.756Z,4.10
2023-03-27T03:16:11.478Z,3.40
2023-03-27T03:18:41.509Z,3.40
2023-03-27T03:21:09.997Z,3.50
2023-03-27T03:23:39.477Z,4.30
2023-03-27T03:26:08.782Z,2.90
2023-03-27T03:29:00.660Z,3.90
2023-03-27T03:31:44.515Z,4.10
2023-03-27T03:34:16.759Z,4.10
2023-03-27T03:36:49.769Z,3.80
2023-03-27T03:39:23.036Z,3.80
2023-03-27T03:41:51.808Z,4.00
2023-03-27T03:44:20.310Z,4.40
2023-03-27T03:46:49.030Z,3.80
2023-03-27T03:49:22.124Z,3.80
2023-03-27T03:52:04.351Z,2.80
2023-03-27T03:54:33.756Z,2.90
2023-03-27T03:57:03.611Z,3.70
2023-03-27T03:59:33.312Z,3.90
2023-03-27T04:02:31.672Z,3.70
2023-03-27T04:07:41.382Z,4.20
2023-03-27T04:10:21.547Z,3.70
2023-03-27T04:12:50.827Z,3.80
2023-03-27T04:15:29.036Z,3.70
2023-03-27T04:18:04.585Z,3.90
2023-03-27T04:20:34.932Z,3.60
2023-03-27T04:23:05.110Z,3.20
2023-03-27T04:25:36.843Z,3.60
2023-03-27T04:28:05.940Z,3.70
2023-03-27T04:30:44.348Z,3.20
2023-03-27T04:33:18.783Z,3.30
2023-03-27T04:36:12.140Z,3.40
2023-03-27T04:38:48.131Z,4.40
2023-03-27T04:41:17.855Z,3.50
2023-03-27T04:43:46.342Z,3.90
2023-03-27T04:46:15.042Z,4.10
2023-03-27T04:48:44.051Z,3.80
2023-03-27T04:51:28.062Z,3.30
2023-03-27T04:53:56.674Z,3.80
2023-03-27T04:56:26.093Z,4.40
2023-03-27T04:58:56.005Z,3.90
2023-03-27T05:01:25.479Z,3.90
2023-03-27T05:03:53.839Z,2.80
2023-03-27T05:06:49.654Z,3.20
2023-03-27T05:09:19.180Z,3.80
2023-03-27T05:11:50.154Z,3.80
2023-03-27T05:14:21.601Z,3.80
2023-03-27T05:16:52.500Z,3.80
2023-03-27T05:19:21.375Z,4.30
2023-03-27T05:21:58.203Z,3.30
2023-03-27T05:24:27.300Z,3.30
2023-03-27T05:26:55.877Z,3.20
2023-03-27T05:29:24.505Z,5.90
2023-03-27T05:32:01.289Z,6.10
2023-03-27T05:34:34.890Z,4.20
2023-03-27T05:37:06.312Z,4.00
2023-03-27T05:39:41.600Z,3.80
2023-03-27T05:42:10.653Z,3.70
2023-03-27T05:44:38.835Z,3.60
2023-03-27T05:47:07.048Z,4.10
2023-03-27T05:49:36.804Z,3.40
2023-03-27T05:52:12.293Z,2.60
2023-03-27T05:54:40.424Z,3.80
2023-03-27T05:57:12.819Z,3.70
2023-03-27T05:59:41.896Z,4.00
2023-03-27T06:02:20.684Z,3.20
2023-03-27T06:04:56.709Z,3.70
2023-03-27T06:07:30.471Z,3.90
2023-03-27T06:10:03.587Z,3.60
2023-03-27T06:13:05.384Z,3.70
2023-03-27T06:15:41.645Z,3.60
2023-03-27T06:18:27.374Z,3.30
2023-03-27T06:20:56.356Z,2.40
2023-03-27T06:23:25.310Z,3.60
2023-03-27T06:25:54.087Z,3.60
2023-03-27T06:28:25.742Z,3.50
2023-03-27T06:30:54.920Z,3.80
2023-03-27T06:33:29.876Z,4.00
2023-03-27T06:36:01.634Z,3.90
2023-03-27T06:38:37.424Z,3.30
2023-03-27T06:44:09.935Z,3.90
2023-03-27T06:46:53.787Z,3.40
2023-03-27T06:52:15.165Z,3.50
2023-03-27T06:54:44.554Z,3.60
2023-03-27T06:57:15.747Z,3.00
2023-03-27T07:00:00.876Z,3.20
2023-03-27T07:02:49.823Z,3.30
2023-03-27T07:05:44.067Z,3.00
2023-03-27T07:10:56.349Z,2.90
2023-03-27T07:13:29.257Z,3.90
2023-03-27T07:15:59.638Z,3.10
2023-03-27T07:18:28.915Z,3.40
2023-03-27T07:20:57.752Z,2.90
2023-03-27T07:23:27.013Z,3.70
2023-03-27T07:26:01.612Z,3.50
2023-03-27T07:28:50.566Z,4.00
2023-03-27T07:31:33.038Z,3.90
2023-03-27T07:34:08.920Z,4.00
2023-03-27T07:36:57.640Z,3.80
2023-03-27T07:39:25.919Z,3.70
2023-03-27T07:41:55.770Z,3.80
2023-03-27T07:44:29.299Z,3.70
2023-03-27T07:47:02.190Z,3.80
2023-03-27T07:49:39.985Z,3.90
2023-03-27T07:52:16.615Z,3.70
2023-03-27T07:54:57.200Z,3.60
2023-03-27T07:57:31.668Z,4.20
2023-03-27T08:00:11.944Z,3.50
2023-03-27T08:02:52.243Z,3.30
2023-03-27T08:05:21.227Z,3.90
2023-03-27T08:07:59.088Z,4.40
2023-03-27T08:10:47.633Z,4.10
2023-03-27T08:13:18.720Z,3.90
2023-03-27T08:15:47.465Z,3.90
2023-03-27T08:18:22.716Z,3.90
2023-03-27T08:20:57.586Z,4.60
2023-03-27T08:23:27.811Z,5.50
2023-03-27T08:26:16.510Z,7.30
2023-03-27T08:29:10.974Z,7.10
2023-03-27T08:31:39.851Z,7.60
2023-03-27T08:34:09.501Z,6.40
2023-03-27T08:36:45.350Z,5.90
2023-03-27T08:39:14.390Z,5.70
2023-03-27T08:41:55.524Z,6.20
2023-03-27T08:44:32.084Z,5.80
2023-03-27T08:47:13.732Z,5.30
2023-03-27T08:49:53.253Z,5.60
2023-03-27T08:52:32.155Z,5.30
2023-03-27T08:55:15.873Z,5.20
2023-03-27T08:57:51.740Z,5.80
2023-03-27T09:00:28.114Z,5.60
2023-03-27T09:03:33.155Z,5.00
2023-03-27T09:06:39.804Z,5.90
2023-03-27T09:09:33.399Z,5.50
2023-03-27T09:12:40.688Z,5.90
2023-03-27T09:15:26.474Z,5.20
2023-03-27T09:18:06.388Z,5.20
2023-03-27T09:20:41.163Z,5.00
2023-03-27T09:23:24.771Z,4.90
2023-03-27T09:26:24.357Z,5.00
2023-03-27T09:29:20.607Z,4.80
2023-03-27T09:31:56.799Z,4.40
2023-03-27T09:34:34.527Z,4.50
2023-03-27T09:37:04.951Z,4.20
2023-03-27T09:39:36.784Z,4.70
2023-03-27T09:42:29.535Z,5.10
2023-03-27T09:45:02.995Z,5.10
2023-03-27T09:50:35.478Z,6.30
2023-03-27T09:53:12.519Z,6.50
2023-03-27T09:56:13.104Z,7.10
2023-03-27T09:58:47.043Z,7.20
2023-03-27T10:01:35.283Z,5.90
2023-03-27T10:04:19.476Z,4.80
2023-03-27T10:07:02.271Z,5.50
2023-03-27T10:10:15.833Z,9.10
2023-03-27T10:13:22.266Z,6.70
2023-03-27T10:16:01.938Z,5.70
2023-03-27T10:18:42.417Z,4.50
2023-03-27T10:21:39.890Z,4.60
2023-03-27T10:24:17.437Z,5.30
2023-03-27T10:27:08.338Z,5.30
2023-03-27T10:29:41.081Z,4.80
2023-03-27T10:32:13.253Z,5.80
2023-03-27T10:34:58.388Z,5.80
2023-03-27T10:37:50.484Z,5.20
2023-03-27T10:40:51.301Z,5.00
2023-03-27T10:43:42.850Z,5.30
2023-03-27T10:46:22.128Z,4.90
2023-03-27T10:49:10.079Z,5.20
2023-03-27T10:51:47.089Z,4.80
2023-03-27T10:54:54.932Z,4.50
2023-03-27T10:57:31.916Z,4.70
2023-03-27T11:00:16.926Z,4.50
2023-03-27T11:03:13.256Z,5.30
2023-03-27T11:05:46.914Z,4.40
2023-03-27T11:08:35.858Z,4.20
2023-03-27T11:11:30.174Z,4.50
2023-03-27T11:16:36.123Z,4.70
2023-03-27T11:19:43.113Z,4.00
2023-03-27T11:22:56.442Z,4.70
2023-03-27T11:25:47.145Z,5.00
2023-03-27T11:28:46.698Z,4.50
2023-03-27T11:31:40.312Z,3.60
2023-03-27T11:34:34.834Z,4.00
2023-03-27T11:37:29.612Z,4.30
2023-03-27T11:40:06.194Z,4.10
2023-03-27T11:42:42.891Z,3.40
2023-03-27T11:45:14.850Z,3.30
2023-03-27T11:47:48.365Z,2.80
2023-03-27T11:50:47.699Z,3.10
2023-03-27T11:53:19.847Z,3.00
2023-03-27T11:56:12.623Z,2.80
2023-03-27T11:59:07.473Z,4.30
2023-03-27T12:02:14.606Z,3.80
2023-03-27T12:04:49.308Z,4.10
2023-03-27T12:07:48.171Z,3.80
2023-03-27T12:10:34.052Z,3.50
2023-03-27T12:13:42.717Z,4.10
2023-03-27T12:16:28.465Z,4.70
2023-03-27T12:19:38.569Z,3.70
2023-03-27T12:22:34.205Z,3.60
2023-03-27T12:25:18.715Z,4.20
2023-03-27T12:28:26.068Z,4.60
2023-03-27T12:31:15.224Z,4.80
2023-03-27T12:33:44.051Z,5.00
2023-03-27T12:36:25.112Z,4.20
2023-03-27T12:38:56.110Z,4.40
2023-03-27T12:41:35.722Z,5.50
2023-03-27T12:44:19.146Z,5.00
2023-03-27T12:47:16.271Z,4.40
2023-03-27T12:49:58.543Z,4.90
2023-03-27T12:52:31.580Z,4.00
2023-03-27T12:55:18.722Z,4.10
2023-03-27T12:58:01.312Z,3.90
2023-03-27T13:01:01.060Z,3.40
2023-03-27T13:04:08.581Z,4.10
2023-03-27T13:07:05.508Z,3.60
2023-03-27T13:10:16.517Z,4.00
2023-03-27T13:13:17.371Z,3.80
2023-03-27T13:16:11.930Z,3.80
2023-03-27T13:18:55.798Z,3.50
2023-03-27T13:21:47.395Z,4.00
2023-03-27T13:24:43.951Z,4.20
2023-03-27T13:27:34.413Z,4.00
2023-03-27T13:30:04.693Z,4.40
2023-03-27T13:33:24.216Z,4.10
2023-03-27T13:36:02.799Z,4.20
2023-03-27T13:38:52.117Z,4.60
2023-03-27T13:41:46.558Z,5.00
2023-03-27T13:45:01.402Z,4.10
2023-03-27T13:47:35.349Z,3.90
2023-03-27T13:50:19.096Z,4.10
2023-03-27T13:52:56.842Z,4.20
2023-03-27T13:56:17.771Z,7.00
2023-03-27T13:59:34.584Z,3.90
2023-03-27T14:03:04.603Z,3.60
2023-03-27T14:05:59.676Z,3.20
2023-03-27T14:09:08.218Z,3.20
2023-03-27T14:11:45.372Z,3.60
2023-03-27T14:14:32.626Z,4.00
2023-03-27T14:17:25.962Z,3.70
2023-03-27T14:20:08.420Z,3.00
2023-03-27T14:22:53.806Z,4.40
2023-03-27T14:25:36.652Z,3.90
2023-03-27T14:28:32.636Z,2.80
2023-03-27T14:31:07.561Z,3.30
2023-03-27T14:34:03.613Z,3.50
2023-03-27T14:36:34.265Z,3.20
2023-03-27T14:39:14.822Z,4.20
2023-03-27T14:42:03.338Z,3.10
2023-03-27T14:44:33.719Z,4.10
2023-03-27T14:47:14.468Z,2.60
2023-03-27T14:49:50.114Z,3.50
2023-03-27T14:52:35.598Z,3.00
2023-03-27T14:55:32.471Z,2.60
2023-03-27T14:58:27.875Z,2.80
2023-03-27T15:01:01.747Z,2.80
2023-03-27T15:03:37.201Z,2.80
2023-03-27T15:06:17.470Z,3.10
2023-03-27T15:09:00.838Z,2.60
2023-03-27T15:11:55.476Z,2.60
2023-03-27T15:14:29.345Z,2.90
2023-03-27T15:17:03.233Z,3.30
2023-03-27T15:19:49.737Z,3.40
2023-03-27T15:22:30.097Z,3.60
2023-03-27T15:25:18.187Z,3.70
2023-03-27T15:27:53.109Z,2.60
2023-03-27T15:30:45.558Z,3.60
2023-03-27T15:33:22.187Z,3.40
2023-03-27T15:35:56.122Z,3.40
2023-03-27T15:38:29.506Z,3.70
2023-03-27T15:41:20.950Z,3.40
2023-03-27T15:43:52.374Z,3.50
2023-03-27T15:46:24.764Z,5.00
2023-03-27T15:48:56.753Z,4.40
2023-03-27T15:51:29.529Z,3.00
2023-03-27T15:53:57.670Z,2.90
2023-03-27T15:56:43.835Z,2.10
2023-03-27T15:59:15.436Z,2.10
2023-03-27T16:01:53.273Z,2.40
2023-03-27T16:04:26.674Z,2.80
2023-03-27T16:07:07.343Z,2.50
2023-03-27T16:09:58.516Z,2.90
2023-03-27T16:12:48.594Z,2.50
2023-03-27T16:15:34.868Z,2.80
2023-03-27T16:18:30.499Z,2.50
2023-03-27T16:21:10.822Z,3.00
2023-03-27T16:23:40.009Z,2.70
2023-03-27T16:26:32.048Z,3.20
2023-03-27T16:29:03.394Z,2.90
2023-03-27T16:31:32.056Z,2.90
2023-03-27T16:34:01.024Z,3.00
2023-03-27T16:36:31.776Z,3.30
2023-03-27T16:39:00.047Z,3.30
2023-03-27T16:41:28.831Z,3.70
2023-03-27T16:43:57.486Z,3.70
2023-03-27T16:46:28.522Z,3.40
2023-03-27T16:48:57.630Z,3.70
2023-03-27T16:51:29.111Z,3.80
2023-03-27T16:53:57.768Z,3.90
2023-03-27T16:56:26.538Z,3.90
2023-03-27T16:58:55.962Z,4.20
2023-03-27T17:01:25.544Z,4.10
2023-03-27T17:03:54.144Z,3.80
2023-03-27T17:06:23.051Z,4.40
2023-03-27T17:08:55.717Z,4.70
2023-03-27T17:11:24.574Z,4.30
2023-03-27T17:13:53.017Z,4.30
2023-03-27T17:16:22.133Z,5.60
2023-03-27T17:18:52.163Z,4.90
2023-03-27T17:21:20.230Z,4.50
2023-03-27T17:23:48.921Z,5.20
2023-03-27T17:26:25.492Z,5.00
2023-03-27T17:28:54.845Z,6.80
2023-03-27T17:31:23.119Z,5.50
2023-03-27T17:33:51.745Z,5.60
2023-03-27T17:36:33.113Z,5.70
2023-03-27T17:39:08.488Z,6.60
2023-03-27T17:41:36.597Z,7.20
2023-03-27T17:44:07.426Z,5.30
2023-03-27T17:46:36.228Z,5.70
2023-03-27T17:49:04.772Z,5.40
2023-03-27T17:51:34.532Z,5.40
2023-03-27T17:54:02.841Z,5.40
2023-03-27T17:56:31.523Z,5.50
2023-03-27T17:59:01.069Z,5.70
2023-03-27T18:01:29.478Z,6.40
2023-03-27T18:04:00.697Z,6.40
2023-03-27T18:06:29.212Z,6.40
2023-03-27T18:08:57.348Z,6.30
2023-03-27T18:11:25.994Z,7.10
2023-03-27T18:13:54.129Z,7.60
2023-03-27T18:16:23.319Z,6.60
2023-03-27T18:18:54.439Z,7.10
2023-03-27T18:21:23.280Z,6.60
2023-03-27T18:23:53.848Z,7.10
2023-03-27T18:26:22.142Z,7.60
2023-03-27T18:28:51.631Z,7.80
2023-03-27T18:31:20.111Z,8.30
2023-03-27T18:33:48.274Z,8.70
2023-03-27T18:36:17.117Z,9.20
2023-03-27T18:38:47.757Z,10.30
2023-03-27T18:41:17.741Z,11.50
2023-03-27T18:43:46.185Z,11.70
2023-03-27T18:46:17.201Z,13.10
2023-03-27T18:48:48.825Z,13.00
2023-03-27T18:51:20.420Z,13.50
2023-03-27T18:53:49.846Z,14.40
2023-03-27T18:56:18.794Z,12.60
2023-03-27T18:58:47.460Z,14.90
2023-03-27T19:01:16.214Z,15.30
2023-03-27T19:03:44.882Z,12.40
2023-03-27T19:06:13.596Z,12.80
2023-03-27T19:08:46.960Z,10.80
2023-03-27T19:11:15.542Z,9.00
2023-03-27T19:14:10.272Z,8.10
2023-03-27T19:16:44.686Z,8.60
2023-03-27T19:19:32.199Z,7.30
2023-03-27T19:22:19.505Z,7.80
2023-03-27T19:24:53.660Z,6.70
2023-03-27T19:27:22.961Z,6.30
2023-03-27T19:29:53.931Z,7.00
2023-03-27T19:32:24.311Z,6.80
2023-03-27T19:34:52.557Z,7.70
2023-03-27T19:37:20.981Z,6.80
2023-03-27T19:39:49.113Z,7.00
2023-03-27T19:42:17.909Z,7.70
2023-03-27T19:44:46.200Z,7.70
2023-03-27T19:47:14.493Z,8.20
2023-03-27T19:49:42.807Z,9.00
2023-03-27T19:52:31.246Z,9.60
2023-03-27T19:54:59.476Z,9.00
2023-03-27T19:57:27.746Z,9.80
2023-03-27T19:59:56.178Z,9.00
2023-03-27T20:02:24.232Z,7.30
2023-03-27T20:04:53.208Z,8.10
2023-03-27T20:07:21.467Z,8.20
2023-03-27T20:09:49.526Z,8.00
2023-03-27T20:12:19.914Z,6.00
2023-03-27T20:14:58.713Z,5.90
2023-03-27T20:17:36.338Z,6.90
2023-03-27T20:20:06.348Z,6.10
2023-03-27T20:22:40.720Z,5.60
2023-03-27T20:25:15.217Z,5.30
2023-03-27T20:27:44.005Z,3.60
2023-03-27T20:30:14.531Z,1.90
2023-03-27T20:32:42.883Z,1.20
2023-03-27T20:35:22.864Z,0.90
2023-03-27T20:37:56.780Z,0.70
2023-03-27T20:40:26.150Z,0.70
2023-03-27T20:43:03.727Z,1.10
2023-03-27T20:45:31.877Z,0.80
2023-03-27T20:48:04.286Z,0.90
2023-03-27T20:50:35.553Z,0.60
2023-03-27T20:53:04.875Z,0.60
2023-03-27T20:55:37.522Z,0.70
2023-03-27T20:58:13.688Z,0.70
2023-03-27T21:00:43.919Z,0.70
2023-03-27T21:03:12.486Z,0.70
2023-03-27T21:05:41.453Z,0.50
2023-03-27T21:08:09.691Z,0.90
2023-03-27T21:10:38.976Z,0.40
2023-03-27T21:13:07.220Z,0.60
2023-03-27T21:15:35.480Z,0.40
2023-03-27T21:18:03.654Z,0.60
2023-03-27T21:20:34.607Z,0.50
2023-03-27T21:23:03.731Z,0.40
2023-03-27T21:25:35.041Z,0.60
2023-03-27T21:28:06.386Z,0.40
2023-03-27T21:30:47.025Z,0.50
2023-03-27T21:33:17.148Z,0.20
2023-03-27T21:35:47.658Z,0.50
2023-03-27T21:38:17.503Z,0.50
2023-03-27T21:40:47.084Z,0.70
2023-03-27T21:43:15.488Z,0.50
2023-03-27T21:45:43.665Z,0.40
2023-03-27T21:48:12.072Z,0.50
2023-03-27T21:50:40.403Z,0.40
2023-03-27T21:53:09.055Z,0.30
2023-03-27T21:55:37.694Z,0.60
2023-03-27T21:58:06.362Z,0.40
2023-03-27T22:00:35.001Z,0.60
2023-03-27T22:03:03.181Z,0.30
2023-03-27T22:05:31.361Z,0.70
2023-03-27T22:07:59.450Z,0.40
2023-03-27T22:10:27.606Z,0.50
2023-03-27T22:12:55.773Z,0.50
2023-03-27T22:15:24.050Z,0.60
2023-03-27T22:17:52.719Z,0.60
2023-03-27T22:20:23.919Z,0.70
2023-03-27T22:22:52.421Z,0.60
2023-03-27T22:25:23.278Z,0.60
2023-03-27T22:27:51.651Z,0.70
2023-03-27T22:30:20.119Z,0.20
2023-03-27T22:32:48.289Z,0.60
2023-03-27T22:35:16.579Z,0.60
2023-03-27T22:37:44.932Z,0.70
2023-03-27T22:40:13.328Z,0.50
2023-03-27T22:42:41.762Z,0.60
2023-03-27T22:45:10.576Z,0.60
2023-03-27T22:47:38.797Z,0.60
2023-03-27T22:50:08.890Z,0.50
2023-03-27T22:52:37.128Z,0.70
2023-03-27T22:55:05.972Z,0.60
2023-03-27T22:57:37.054Z,0.60
2023-03-27T23:00:07.166Z,0.70
2023-03-27T23:02:35.574Z,0.60
2023-03-27T23:05:04.490Z,0.50
2023-03-27T23:07:32.836Z,0.60
2023-03-27T23:10:01.205Z,0.60
2023-03-27T23:12:29.484Z,0.80
2023-03-27T23:14:58.188Z,0.70
2023-03-27T23:17:27.600Z,0.70
2023-03-27T23:19:56.351Z,0.70
2023-03-27T23:22:24.693Z,0.80
2023-03-27T23:24:52.845Z,0.50
2023-03-27T23:27:21.314Z,0.60
2023-03-27T23:29:49.797Z,0.60
2023-03-27T23:32:17.964Z,0.80
2023-03-27T23:34:46.139Z,0.90
2023-03-27T23:37:14.312Z,0.90
2023-03-27T23:39:42.701Z,0.90
2023-03-27T23:42:10.906Z,0.80
2023-03-27T23:44:39.336Z,0.80
2023-03-27T23:47:07.588Z,0.70
2023-03-27T23:49:35.792Z,1.00
2023-03-27T23:52:03.802Z,1.10
2023-03-27T23:54:32.092Z,1.20
2023-03-27T23:57:00.177Z,1.20
2023-03-27T23:59:28.399Z,1.30
